Amboy, Washington
Current Conditions -  °F | °C
As of 6:53 AM on Thursday 23 Oct 2014 (Local Time) from KSPB Reporting Station
Light Rain Light Rain  
Wind Chill: 12°   Ceiling: 700
Heat Index: 12°   Visibility: 10mi
Dew Point: 12°   Wind: 6mph
Humidity: 97%   Direction: 100°E
Pressure: 29.75"   Gusts: NA
Location:  45.91°N, 122.45°W
Report Text: KSPB 231353Z AUTO 10005KT 10SM -RA OVC007 12/12 A2975 RMK AO2 RAE1257B52 SLP073 P0000 T01220117
Loading
Personal Weather Stations






























Interactive Weather Map
Tropical Storm Tracking
New forecast layout! Learn more

10-Day Weather Forecast

Advertisements
Track Severe Weather on mobile